createdAt,value
2022-09-28T00:08:35.125Z,7.94
2022-09-28T00:18:56.553Z,8.07
2022-09-28T00:29:19.968Z,8.13
2022-09-28T00:39:41.628Z,8.20
2022-09-28T00:50:06.768Z,8.16
2022-09-28T01:00:28.363Z,8.40
2022-09-28T01:10:51.098Z,8.32
2022-09-28T01:21:20.220Z,8.29
2022-09-28T01:31:44.116Z,8.19
2022-09-28T01:42:11.974Z,8.18
2022-09-28T01:52:40.539Z,8.32
2022-09-28T02:03:07.851Z,8.34
2022-09-28T02:13:37.499Z,8.34
2022-09-28T02:24:03.805Z,8.47
2022-09-28T02:34:25.893Z,8.41
2022-09-28T02:44:57.688Z,8.41
2022-09-28T02:55:23.899Z,8.35
2022-09-28T03:06:04.344Z,8.24
2022-09-28T03:16:27.510Z,8.22
2022-09-28T03:26:48.975Z,8.17
2022-09-28T03:37:10.366Z,8.14
2022-09-28T03:47:31.737Z,8.17
2022-09-28T03:57:54.115Z,8.17
2022-09-28T04:08:15.575Z,8.26
2022-09-28T04:18:37.019Z,8.31
2022-09-28T04:29:16.814Z,8.39
2022-09-28T04:39:38.280Z,8.46
2022-09-28T04:49:59.662Z,8.64
2022-09-28T05:00:21.018Z,8.64
2022-09-28T05:10:42.722Z,8.58
2022-09-28T05:21:04.568Z,8.73
2022-09-28T05:31:27.250Z,8.77
2022-09-28T05:41:48.706Z,8.75
2022-09-28T05:52:10.067Z,8.78
2022-09-28T06:02:31.480Z,8.76
2022-09-28T06:12:55.950Z,9.04
2022-09-28T06:23:17.643Z,9.02
2022-09-28T06:33:38.987Z,8.98
2022-09-28T06:44:02.024Z,8.81
2022-09-28T06:54:25.818Z,9.08
2022-09-28T07:04:47.170Z,8.92
2022-09-28T07:15:09.118Z,8.92
2022-09-28T07:25:31.598Z,8.78
2022-09-28T07:35:53.983Z,8.87
2022-09-28T07:46:16.822Z,8.96
2022-09-28T07:56:38.210Z,9.08
2022-09-28T08:07:00.385Z,9.21
2022-09-28T08:17:23.053Z,9.04
2022-09-28T08:27:44.409Z,9.32
2022-09-28T08:38:05.795Z,9.33
2022-09-28T08:48:56.258Z,9.39
2022-09-28T08:59:24.961Z,9.32
2022-09-28T09:09:49.291Z,9.62
2022-09-28T09:20:25.234Z,9.21
2022-09-28T09:30:46.595Z,9.47
2022-09-28T09:41:14.805Z,9.80
2022-09-28T09:51:55.265Z,9.63
2022-09-28T10:02:22.735Z,9.98
2022-09-28T10:12:44.546Z,10.26
2022-09-28T10:23:07.206Z,10.42
2022-09-28T10:33:30.193Z,10.54
2022-09-28T10:44:06.362Z,10.98
2022-09-28T10:54:29.725Z,10.65
2022-09-28T11:04:55.458Z,10.98
2022-09-28T11:15:18.985Z,10.98
2022-09-28T11:25:40.674Z,11.26
2022-09-28T11:36:02.029Z,11.62
2022-09-28T11:46:53.047Z,11.91
2022-09-28T11:57:20.551Z,11.64
2022-09-28T12:07:47.460Z,11.88
2022-09-28T12:18:14.368Z,12.28
2022-09-28T12:28:41.832Z,12.54
2022-09-28T12:39:18.894Z,12.61
2022-09-28T13:00:43.460Z,12.95
2022-09-28T13:11:15.747Z,12.88
2022-09-28T13:21:46.267Z,13.17
2022-09-28T13:32:08.557Z,13.39
2022-09-28T13:42:36.232Z,13.60
2022-09-28T13:52:57.620Z,13.98
2022-09-28T14:03:37.748Z,13.65
2022-09-28T14:14:08.460Z,13.75
2022-09-28T14:24:42.044Z,14.24
2022-09-28T14:35:18.937Z,13.94
2022-09-28T14:45:42.380Z,13.64
2022-09-28T14:56:08.791Z,13.64
2022-09-28T15:06:46.511Z,13.85
2022-09-28T15:17:13.380Z,14.35
2022-09-28T15:27:37.568Z,14.24
2022-09-28T15:37:59.131Z,14.23
2022-09-28T15:48:26.275Z,13.84
2022-09-28T15:59:06.752Z,13.73
2022-09-28T16:09:40.271Z,13.61
2022-09-28T16:20:18.727Z,13.55
2022-09-28T16:31:03.269Z,13.48
2022-09-28T16:41:28.920Z,13.58
2022-09-28T16:51:50.438Z,13.24
2022-09-28T17:02:35.298Z,12.92
2022-09-28T17:12:59.881Z,12.54
2022-09-28T17:23:22.121Z,12.33
2022-09-28T17:33:44.247Z,12.33
2022-09-28T17:44:06.455Z,12.27
2022-09-28T17:54:28.302Z,11.94
2022-09-28T18:04:52.209Z,11.77
2022-09-28T18:15:15.133Z,11.47
2022-09-28T18:25:41.421Z,11.51
2022-09-28T18:36:04.389Z,11.36
2022-09-28T18:46:27.858Z,11.27
2022-09-28T18:56:51.189Z,11.14
2022-09-28T19:07:12.772Z,11.01
2022-09-28T19:17:34.293Z,10.91
2022-09-28T19:27:55.749Z,11.02
2022-09-28T19:38:17.199Z,10.61
2022-09-28T19:48:42.335Z,10.64
2022-09-28T19:59:03.923Z,10.42
2022-09-28T20:09:25.489Z,10.49
2022-09-28T20:19:47.962Z,10.28
2022-09-28T20:30:11.079Z,10.17
2022-09-28T20:40:32.667Z,10.08
2022-09-28T20:51:03.162Z,10.09
2022-09-28T21:01:27.188Z,9.73
2022-09-28T21:11:48.809Z,9.63
2022-09-28T21:22:10.291Z,9.66
2022-09-28T21:32:35.121Z,9.59
2022-09-28T21:42:56.733Z,9.44
2022-09-28T21:53:18.183Z,9.50
2022-09-28T22:03:39.768Z,9.21
2022-09-28T22:14:01.470Z,9.22
2022-09-28T22:24:23.089Z,8.96
2022-09-28T22:34:44.578Z,8.98
2022-09-28T22:45:06.605Z,9.05
2022-09-28T22:55:29.096Z,8.84
2022-09-28T23:05:55.723Z,8.94
2022-09-28T23:16:17.902Z,8.68
2022-09-28T23:26:39.403Z,8.48
2022-09-28T23:37:00.852Z,8.53
2022-09-28T23:47:22.461Z,8.41
2022-09-28T23:57:44.091Z,8.31
